Terminal Aerodrome Forecast
Issued by NWS

Home | Current Version | Previous Version | Text Only | Print | Product List | Glossary On
Versions: 1 2 3 4 5 6 7 8 9 10 11 12 13 14 15 16 17
000
FTAK31 PAJN 032000 AAA
TAFAGY
TAF AMD
PAGY 032003Z 0320/0418 21005KT P6SM VCSH OVC060
     FM040100 21005KT P6SM VCSH SCT020 OVC050
     FM041500 21004KT P6SM -RASN SCT015 OVC035
      AMD LTD TO CLD VIS AND WIND=

USA.gov is the U.S. government's official web portal to all federal, state and local government web resources and services.